Time;durP1;ratioP1;P1;durP2;ratioP2;P2;SDS_P1;SDS_P2;PMS_P1;PMS_P2;Temp;Humidity;BMP_temperature;BMP_pressure;BME280_temperature;BME280_humidity;BME280_pressure;Samples;Min_cycle;Max_cycle;Signal;HPM_P1;HPM_P2
2023/06/30 00:02:25;;;;;;;4.90;4.40;;;;;;;17.92;83.88;100083.95;104203;276;39281;-73
2023/06/30 00:05:00;;;;;;;6.00;4.80;;;;;;;17.89;83.87;100084.14;104150;276;38636;-72
2023/06/30 00:07:34;;;;;;;5.80;4.70;;;;;;;17.86;83.56;100083.52;104217;275;38341;-74
2023/06/30 00:10:10;;;;;;;4.70;4.30;;;;;;;17.81;83.66;100077.72;104175;275;38945;-74
2023/06/30 00:12:44;;;;;;;5.60;5.20;;;;;;;17.76;83.92;100078.92;104190;275;38725;-71
2023/06/30 00:15:18;;;;;;;6.70;4.90;;;;;;;17.73;83.88;100079.33;104119;275;39715;-73
2023/06/30 00:17:52;;;;;;;5.00;4.50;;;;;;;17.71;83.99;100083.38;104165;275;39396;-74
2023/06/30 00:20:26;;;;;;;6.60;5.00;;;;;;;17.69;84.13;100088.92;104143;276;38464;-73
2023/06/30 00:23:00;;;;;;;5.70;5.10;;;;;;;17.66;84.22;100092.54;104163;275;39578;-75
2023/06/30 00:25:34;;;;;;;5.90;5.40;;;;;;;17.65;84.30;100091.34;104131;275;38371;-73
2023/06/30 00:28:08;;;;;;;5.50;4.90;;;;;;;17.61;83.97;100089.52;104035;276;174555;-75
2023/06/30 00:30:43;;;;;;;6.00;4.60;;;;;;;17.56;84.09;100087.59;104129;275;39014;-74
2023/06/30 00:33:19;;;;;;;5.00;4.50;;;;;;;17.48;83.74;100086.88;104120;275;38266;-72
2023/06/30 00:35:53;;;;;;;6.00;4.80;;;;;;;17.42;83.93;100080.10;104161;275;39000;-73
2023/06/30 00:38:27;;;;;;;6.20;5.30;;;;;;;17.35;83.80;100079.36;104179;275;38540;-73
2023/06/30 00:41:01;;;;;;;5.40;4.90;;;;;;;17.30;84.01;100077.31;104162;276;38532;-73
2023/06/30 00:43:35;;;;;;;5.80;5.30;;;;;;;17.24;84.09;100072.24;104151;276;38252;-71
2023/06/30 00:46:11;;;;;;;5.40;4.80;;;;;;;17.18;84.11;100070.52;104199;276;40380;-73
2023/06/30 00:48:45;;;;;;;5.50;5.00;;;;;;;17.10;83.77;100067.04;104234;275;38954;-73
2023/06/30 00:51:19;;;;;;;5.80;5.20;;;;;;;17.04;83.93;100066.39;104100;277;39584;-72
2023/06/30 00:53:53;;;;;;;5.80;5.40;;;;;;;16.98;84.05;100072.64;104185;275;38238;-74
2023/06/30 00:56:27;;;;;;;5.30;4.80;;;;;;;16.93;84.30;100074.38;104182;275;38529;-73
2023/06/30 00:59:01;;;;;;;5.80;5.20;;;;;;;16.91;84.56;100072.59;104135;276;37948;-73
2023/06/30 01:01:38;;;;;;;6.30;4.70;;;;;;;16.90;84.52;100068.08;104224;275;38443;-74
2023/06/30 01:04:21;;;;;;;5.20;4.70;;;;;;;16.85;84.22;100062.95;104176;275;38609;-72
2023/06/30 01:07:00;;;;;;;5.10;4.60;;;;;;;16.76;84.00;100057.61;104194;275;39142;-72
2023/06/30 01:09:37;;;;;;;5.00;4.60;;;;;;;16.69;84.22;100054.67;104151;275;38619;-73
2023/06/30 01:12:11;;;;;;;4.80;4.30;;;;;;;16.62;84.13;100051.45;104151;276;38683;-71
2023/06/30 01:14:45;;;;;;;4.90;4.50;;;;;;;16.57;84.04;100053.58;104040;276;38281;-73
2023/06/30 01:17:20;;;;;;;5.30;4.60;;;;;;;16.54;84.17;100057.15;104084;276;38276;-73
2023/06/30 01:19:54;;;;;;;7.10;5.10;;;;;;;16.49;84.05;100051.27;104040;276;39394;-72
2023/06/30 01:22:31;;;;;;;5.30;4.90;;;;;;;16.44;84.39;100055.35;104072;276;39805;-75
2023/06/30 01:25:10;;;;;;;8.30;4.90;;;;;;;16.38;84.22;100055.38;104019;276;38967;-72
2023/06/30 01:27:45;;;;;;;5.20;4.60;;;;;;;16.33;84.19;100053.59;104089;276;38549;-73
2023/06/30 01:30:19;;;;;;;4.90;4.50;;;;;;;16.27;84.13;100048.23;104020;276;38510;-73
2023/06/30 01:32:54;;;;;;;5.00;4.60;;;;;;;16.21;84.16;100048.04;104101;265;38513;-72
2023/06/30 01:35:28;;;;;;;10.90;5.70;;;;;;;16.17;84.32;100044.81;104036;276;38424;-72
2023/06/30 01:38:03;;;;;;;7.60;5.60;;;;;;;16.13;84.48;100042.61;104079;276;38230;-72
2023/06/30 01:40:37;;;;;;;5.90;5.20;;;;;;;16.07;84.32;100039.38;104057;276;38251;-73
2023/06/30 01:43:11;;;;;;;5.60;5.20;;;;;;;16.01;84.36;100034.80;104029;276;38281;-71
2023/06/30 01:45:45;;;;;;;6.20;5.60;;;;;;;15.97;84.69;100034.69;104020;276;38597;-72
2023/06/30 01:48:19;;;;;;;6.00;5.40;;;;;;;15.95;84.72;100034.80;103837;278;38965;-72
2023/06/30 01:50:54;;;;;;;7.00;5.60;;;;;;;15.94;84.71;100038.63;104091;276;38635;-72
2023/06/30 01:53:28;;;;;;;5.90;5.40;;;;;;;15.91;84.78;100036.52;104085;276;38242;-73
2023/06/30 01:56:05;;;;;;;5.60;5.10;;;;;;;15.88;84.86;100037.77;104041;276;38210;-74
2023/06/30 01:58:39;;;;;;;5.40;5.00;;;;;;;15.86;84.70;100036.49;104049;276;38633;-72
2023/06/30 02:01:14;;;;;;;5.50;5.00;;;;;;;15.79;84.55;100036.93;104083;276;38860;-72
2023/06/30 02:03:51;;;;;;;6.20;5.60;;;;;;;15.77;84.74;100040.23;104010;276;38428;-73
2023/06/30 02:06:26;;;;;;;6.20;5.70;;;;;;;15.70;84.75;100035.05;104020;276;38326;-73
2023/06/30 02:09:02;;;;;;;5.90;5.30;;;;;;;15.64;84.70;100036.85;103994;276;38248;-73
2023/06/30 02:11:38;;;;;;;6.30;5.20;;;;;;;15.59;84.87;100034.02;104074;265;38352;-74
2023/06/30 02:14:12;;;;;;;7.70;6.10;;;;;;;15.58;85.15;100035.96;104012;276;38559;-74
2023/06/30 02:16:47;;;;;;;7.60;6.20;;;;;;;15.58;85.32;100034.90;104038;276;38506;-74
2023/06/30 02:19:23;;;;;;;5.80;5.30;;;;;;;15.55;85.24;100034.74;103989;276;39390;-74
2023/06/30 02:21:58;;;;;;;6.00;5.30;;;;;;;15.54;85.37;100034.33;104017;276;39671;-71
2023/06/30 02:24:32;;;;;;;5.60;5.10;;;;;;;15.52;85.28;100035.50;104011;276;39784;-72
2023/06/30 02:27:08;;;;;;;6.70;5.40;;;;;;;15.50;85.10;100033.34;104092;276;39503;-74
2023/06/30 02:29:42;;;;;;;5.70;5.10;;;;;;;15.47;85.28;100029.45;104058;276;38545;-74
2023/06/30 02:32:17;;;;;;;9.00;6.60;;;;;;;15.42;85.06;100028.00;103962;276;39459;-72
2023/06/30 02:34:51;;;;;;;6.20;5.40;;;;;;;15.35;85.17;100029.38;104108;276;38348;-74
2023/06/30 02:37:24;;;;;;;7.20;5.50;;;;;;;15.33;85.47;100029.31;104077;276;39116;-74
2023/06/30 02:39:58;;;;;;;5.80;5.30;;;;;;;15.34;85.76;100030.13;104035;276;38837;-72
2023/06/30 02:42:33;;;;;;;5.90;5.30;;;;;;;15.36;86.10;100030.18;104057;276;38420;-75
2023/06/30 02:45:08;;;;;;;6.30;5.70;;;;;;;15.39;86.22;100025.41;103892;276;175051;-74
2023/06/30 02:47:43;;;;;;;6.40;5.80;;;;;;;15.40;86.21;100021.48;103860;276;38505;-74
2023/06/30 02:50:18;;;;;;;6.20;5.40;;;;;;;15.40;86.08;100022.02;104012;276;38507;-74
2023/06/30 02:52:52;;;;;;;6.00;5.10;;;;;;;15.40;86.16;100019.92;104055;276;39427;-73
2023/06/30 02:55:26;;;;;;;6.10;5.50;;;;;;;15.39;86.07;100015.56;103859;278;38287;-73
2023/06/30 02:58:01;;;;;;;5.70;5.20;;;;;;;15.35;85.91;100015.63;104053;276;38248;-72
2023/06/30 03:00:36;;;;;;;6.10;5.40;;;;;;;15.35;86.15;100013.88;104013;276;38268;-73
2023/06/30 03:03:10;;;;;;;5.30;4.90;;;;;;;15.37;86.26;100013.79;103968;277;174698;-73
2023/06/30 03:05:46;;;;;;;6.00;5.10;;;;;;;15.38;86.26;100017.08;104024;276;38697;-73
2023/06/30 03:08:20;;;;;;;6.60;5.50;;;;;;;15.37;86.11;100013.40;104134;265;38787;-74
2023/06/30 03:10:54;;;;;;;6.90;5.90;;;;;;;15.40;86.53;100013.89;104105;276;38247;-74
2023/06/30 03:13:29;;;;;;;8.80;5.80;;;;;;;15.42;86.73;100013.10;103581;276;684810;-73
2023/06/30 03:16:03;;;;;;;5.30;4.90;;;;;;;15.43;86.86;100017.05;104101;276;38518;-73
2023/06/30 03:18:37;;;;;;;5.90;5.00;;;;;;;15.46;86.87;100017.95;104113;276;39459;-74
2023/06/30 03:21:11;;;;;;;5.30;4.80;;;;;;;15.53;87.15;100018.35;104095;276;39440;-72
2023/06/30 03:23:46;;;;;;;6.10;5.20;;;;;;;15.59;87.36;100022.05;104040;276;38312;-73
2023/06/30 03:26:20;;;;;;;5.70;4.70;;;;;;;15.63;87.44;100025.11;104101;276;39550;-74
2023/06/30 03:28:54;;;;;;;5.30;4.80;;;;;;;15.68;87.49;100022.87;103995;276;38330;-73
2023/06/30 03:31:29;;;;;;;5.20;4.70;;;;;;;15.76;87.70;100025.89;104050;276;39460;-72
2023/06/30 03:34:03;;;;;;;6.30;5.10;;;;;;;15.85;87.97;100025.63;104041;276;38292;-73
2023/06/30 03:36:37;;;;;;;6.70;5.30;;;;;;;15.96;87.82;100022.63;104014;276;39553;-73
2023/06/30 03:39:11;;;;;;;6.20;5.60;;;;;;;16.17;88.00;100019.16;103909;276;176831;-75
2023/06/30 03:41:45;;;;;;;6.30;5.70;;;;;;;16.60;88.96;100024.16;104082;276;38666;-74
2023/06/30 03:44:20;;;;;;;5.90;5.30;;;;;;;17.23;90.22;100016.60;104051;276;39590;-74
2023/06/30 03:46:54;;;;;;;5.90;5.00;;;;;;;18.06;90.46;100010.55;104048;276;38466;-73
2023/06/30 03:49:28;;;;;;;6.90;5.50;;;;;;;18.94;89.03;100009.29;103414;276;911752;-76
2023/06/30 03:52:03;;;;;;;7.20;5.60;;;;;;;19.79;86.88;100004.61;104069;276;38451;-73
2023/06/30 03:54:38;;;;;;;6.20;5.60;;;;;;;20.61;84.18;100005.33;104045;276;39651;-75
2023/06/30 03:57:12;;;;;;;6.80;5.60;;;;;;;21.30;80.50;100002.86;104101;276;39413;-74
2023/06/30 03:59:46;;;;;;;7.00;5.90;;;;;;;21.90;77.66;99999.49;104053;276;38273;-74
2023/06/30 04:02:21;;;;;;;6.10;5.50;;;;;;;22.41;74.73;100002.26;104075;276;38362;-73
2023/06/30 04:04:56;;;;;;;6.20;5.60;;;;;;;22.92;72.22;100003.51;104104;276;38470;-73
2023/06/30 04:07:30;;;;;;;7.90;6.40;;;;;;;23.46;69.96;100003.62;104117;276;38751;-75
2023/06/30 04:10:04;;;;;;;7.10;6.40;;;;;;;23.91;66.66;100002.17;104078;276;38439;-74
2023/06/30 04:12:38;;;;;;;9.00;6.10;;;;;;;24.37;65.10;100000.77;104065;276;38389;-73
2023/06/30 04:15:13;;;;;;;6.20;5.70;;;;;;;24.60;63.13;100002.01;104034;276;38567;-73
2023/06/30 04:17:47;;;;;;;6.50;5.90;;;;;;;25.01;60.51;100002.02;104075;276;38363;-73
2023/06/30 04:20:21;;;;;;;6.50;5.70;;;;;;;25.60;59.28;99995.27;104032;276;38470;-73
2023/06/30 04:22:55;;;;;;;6.50;5.80;;;;;;;26.05;57.49;99999.73;104031;276;39421;-74
2023/06/30 04:25:29;;;;;;;6.10;5.50;;;;;;;26.43;55.73;100003.30;103814;278;39415;-74
2023/06/30 04:28:04;;;;;;;6.90;6.10;;;;;;;26.40;53.62;100001.42;103958;276;171768;-74
2023/06/30 04:30:38;;;;;;;6.60;6.10;;;;;;;25.86;52.78;100004.77;104037;276;39421;-73
2023/06/30 04:33:13;;;;;;;7.50;6.40;;;;;;;25.19;53.79;100009.45;104049;276;38397;-77
2023/06/30 04:35:49;;;;;;;6.70;6.00;;;;;;;24.69;55.19;100010.02;104242;276;38262;-78
2023/06/30 04:38:23;;;;;;;7.10;6.30;;;;;;;24.26;55.82;100005.09;104171;276;39448;-78
2023/06/30 04:40:58;;;;;;;7.10;6.40;;;;;;;23.80;56.33;100007.96;104274;276;38285;-79
2023/06/30 04:43:32;;;;;;;6.80;6.20;;;;;;;23.43;57.36;100006.39;104240;276;38383;-78
2023/06/30 04:46:07;;;;;;;7.80;7.00;;;;;;;23.04;58.30;100008.38;104030;277;38733;-80
2023/06/30 04:48:42;;;;;;;8.20;6.80;;;;;;;22.71;59.96;100015.27;104267;276;38305;-80
2023/06/30 04:51:18;;;;;;;10.40;7.30;;;;;;;22.56;60.81;100013.45;104123;276;40265;-78
2023/06/30 04:53:53;;;;;;;8.50;7.20;;;;;;;22.64;60.78;100007.17;104099;276;39055;-78
2023/06/30 04:56:27;;;;;;;8.30;7.20;;;;;;;22.91;61.22;100002.48;104012;276;174493;-77
2023/06/30 04:59:02;;;;;;;7.90;7.20;;;;;;;23.30;60.70;100001.40;104055;276;39654;-77
2023/06/30 05:01:36;;;;;;;8.30;7.20;;;;;;;23.58;59.82;99999.52;104155;276;39654;-76
2023/06/30 05:04:12;;;;;;;7.50;6.80;;;;;;;23.91;59.69;99995.09;104090;276;38234;-76
2023/06/30 05:06:47;;;;;;;10.10;6.40;;;;;;;24.58;60.01;99995.98;104098;276;38338;-77
2023/06/30 05:09:23;;;;;;;7.80;6.00;;;;;;;25.52;58.58;99993.80;104092;276;38288;-78
2023/06/30 05:11:57;;;;;;;7.20;6.00;;;;;;;26.41;55.68;99999.58;104114;276;38272;-76
2023/06/30 05:14:31;;;;;;;7.60;5.70;;;;;;;27.10;53.56;100000.23;104025;276;38292;-75
2023/06/30 05:17:06;;;;;;;6.30;5.70;;;;;;;27.84;51.91;99999.79;103885;278;38262;-76
2023/06/30 05:19:40;;;;;;;6.40;5.60;;;;;;;28.41;49.87;99997.55;104083;276;38433;-78
2023/06/30 05:22:15;;;;;;;6.90;5.90;;;;;;;29.19;48.24;99999.80;103892;276;39435;-74
2023/06/30 05:24:49;;;;;;;6.30;5.70;;;;;;;29.60;47.11;100000.06;104043;276;39252;-73
2023/06/30 05:27:23;;;;;;;7.30;5.40;;;;;;;29.95;45.83;99998.67;104047;276;38687;-77
2023/06/30 05:29:57;;;;;;;5.90;5.40;;;;;;;30.52;44.25;100002.42;104022;276;38262;-77
2023/06/30 05:32:32;;;;;;;6.90;4.90;;;;;;;31.08;43.00;100006.31;103864;278;38298;-77
2023/06/30 05:35:07;;;;;;;6.70;5.30;;;;;;;31.56;41.90;100005.50;104071;276;38310;-78
2023/06/30 05:37:41;;;;;;;5.90;4.70;;;;;;;32.07;40.73;100002.49;104071;276;38740;-76
2023/06/30 05:40:16;;;;;;;7.00;4.50;;;;;;;32.37;39.49;100001.44;104078;276;39654;-75
2023/06/30 05:42:50;;;;;;;4.70;4.30;;;;;;;32.59;38.39;100001.95;104189;276;38221;-78
2023/06/30 05:45:24;;;;;;;4.80;4.30;;;;;;;32.53;38.28;100001.60;104114;276;39425;-79
2023/06/30 05:47:58;;;;;;;5.40;4.90;;;;;;;32.52;37.89;100005.73;104061;276;174081;-78
2023/06/30 05:50:32;;;;;;;8.10;5.00;;;;;;;32.43;37.77;100004.89;104153;276;38551;-78
2023/06/30 05:53:07;;;;;;;4.60;4.20;;;;;;;32.58;37.30;100002.48;104068;276;38740;-75
2023/06/30 05:55:42;;;;;;;6.70;4.40;;;;;;;32.76;37.71;100000.19;103924;277;38426;-78
2023/06/30 05:58:18;;;;;;;6.80;4.70;;;;;;;32.73;37.60;99999.20;104038;276;38253;-78
2023/06/30 06:00:52;;;;;;;4.90;4.50;;;;;;;32.90;37.52;100004.63;103886;276;41274;-77
2023/06/30 06:03:30;;;;;;;5.00;4.30;;;;;;;33.46;37.14;100004.23;104027;277;38467;-74
2023/06/30 06:06:04;;;;;;;4.70;4.30;;;;;;;33.82;36.58;100005.20;104073;276;38809;-77
2023/06/30 06:08:40;;;;;;;5.30;4.00;;;;;;;34.13;35.47;99999.74;104023;276;38778;-77
2023/06/30 06:11:15;;;;;;;4.60;4.20;;;;;;;33.93;36.09;100000.54;104063;276;39805;-78
2023/06/30 06:13:49;;;;;;;5.10;4.60;;;;;;;33.78;35.60;100000.50;104030;276;38415;-76
2023/06/30 06:16:23;;;;;;;5.00;4.10;;;;;;;33.45;35.87;100001.07;104065;276;38244;-79
2023/06/30 06:18:58;;;;;;;5.10;4.30;;;;;;;33.46;35.58;99998.82;104126;276;38394;-79
2023/06/30 06:21:35;;;;;;;4.20;3.70;;;;;;;33.81;35.51;100001.36;104107;276;39550;-77
2023/06/30 06:24:10;;;;;;;4.50;4.10;;;;;;;34.16;35.34;99997.92;104018;276;38256;-76
2023/06/30 06:26:44;;;;;;;5.40;3.80;;;;;;;34.45;34.56;99996.80;104103;276;39437;-77
2023/06/30 06:29:22;;;;;;;5.80;3.70;;;;;;;34.93;33.36;99997.09;104075;276;38297;-79
2023/06/30 06:31:58;;;;;;;5.00;3.60;;;;;;;35.34;32.31;100000.41;104094;276;38253;-77
2023/06/30 06:34:33;;;;;;;4.80;3.80;;;;;;;35.55;31.95;99998.05;104053;276;38228;-77
2023/06/30 06:37:08;;;;;;;6.90;4.10;;;;;;;35.68;31.37;99995.41;104071;276;38383;-77
2023/06/30 06:39:42;;;;;;;6.30;3.50;;;;;;;35.46;30.94;99997.66;103846;278;39250;-77
2023/06/30 06:42:16;;;;;;;4.60;3.60;;;;;;;35.57;31.08;99998.11;104104;269;38252;-77
2023/06/30 06:44:50;;;;;;;4.50;4.00;;;;;;;36.06;30.60;99997.28;104074;276;38305;-76
2023/06/30 06:48:04;;;;;;;5.20;3.20;;;;;;;36.35;30.12;99996.53;104077;276;38244;-77
2023/06/30 06:50:38;;;;;;;5.90;3.60;;;;;;;36.67;29.46;99995.27;104007;276;39224;-78
2023/06/30 06:53:23;;;;;;;7.50;3.60;;;;;;;36.93;29.40;99997.83;104050;276;38427;-74
2023/06/30 06:55:58;;;;;;;4.00;3.60;;;;;;;37.27;28.84;100000.27;104071;276;38335;-79
2023/06/30 06:58:35;;;;;;;3.80;3.20;;;;;;;37.39;28.37;99998.79;104186;276;38244;-80
2023/06/30 07:01:10;;;;;;;5.70;2.90;;;;;;;37.54;28.59;99997.78;104062;276;38989;-77
2023/06/30 07:03:44;;;;;;;3.60;3.30;;;;;;;37.76;28.34;99999.55;104083;276;39734;-77
2023/06/30 07:06:21;;;;;;;4.40;3.10;;;;;;;37.71;28.28;99998.59;104091;276;38486;-80
2023/06/30 07:08:56;;;;;;;4.20;3.10;;;;;;;37.48;27.99;99994.55;103964;276;38233;-81
2023/06/30 07:11:30;;;;;;;4.30;2.90;;;;;;;36.95;28.15;99993.13;104168;277;39414;-79
2023/06/30 07:14:06;;;;;;;7.30;3.50;;;;;;;36.52;28.63;99987.21;104208;277;38275;-78
2023/06/30 07:16:41;;;;;;;4.10;2.60;;;;;;;36.48;29.26;99988.52;104203;278;38590;-80
2023/06/30 07:19:15;;;;;;;4.30;3.30;;;;;;;36.50;29.43;99984.41;104444;277;38238;-79
2023/06/30 07:21:51;;;;;;;4.60;3.30;;;;;;;36.34;29.27;99986.42;104499;276;38473;-80
2023/06/30 07:24:25;;;;;;;6.70;3.50;;;;;;;36.14;29.99;99987.39;104191;276;38257;-76
2023/06/30 07:27:00;;;;;;;4.30;3.20;;;;;;;35.82;30.25;99986.33;104075;276;39243;-74
2023/06/30 07:29:35;;;;;;;4.30;3.10;;;;;;;35.34;30.71;99984.94;104066;276;38237;-75
2023/06/30 07:32:10;;;;;;;4.60;3.30;;;;;;;34.73;30.94;99983.58;104076;276;40960;-74
2023/06/30 07:34:44;;;;;;;3.90;2.90;;;;;;;34.19;31.63;99982.02;103895;276;39887;-76
2023/06/30 07:37:20;;;;;;;10.30;3.00;;;;;;;33.89;32.32;99982.79;104433;276;38839;-79
2023/06/30 07:39:55;;;;;;;3.30;2.40;;;;;;;33.66;32.43;99984.73;104836;276;174092;-79
2023/06/30 07:42:30;;;;;;;4.90;3.30;;;;;;;33.57;33.54;99983.82;104827;276;38512;-79
2023/06/30 07:45:11;;;;;;;6.90;3.00;;;;;;;33.55;32.61;99984.00;104844;276;38494;-80
2023/06/30 07:47:47;;;;;;;6.70;2.90;;;;;;;33.76;32.84;99979.19;104963;276;38268;-81
2023/06/30 07:50:22;;;;;;;9.00;3.80;;;;;;;34.16;32.61;99974.54;104809;276;39433;-80
2023/06/30 07:52:59;;;;;;;6.00;3.10;;;;;;;34.16;32.19;99969.60;104141;276;170994;-80
2023/06/30 07:55:33;;;;;;;4.70;2.80;;;;;;;34.33;32.07;99968.95;104210;276;38577;-80
2023/06/30 07:58:09;;;;;;;3.70;2.70;;;;;;;34.63;31.95;99966.71;104852;276;38435;-79
2023/06/30 08:00:46;;;;;;;3.50;2.60;;;;;;;35.05;31.03;99966.39;104673;277;39566;-80
2023/06/30 08:03:21;;;;;;;3.60;2.90;;;;;;;35.52;29.94;99965.52;104373;276;38535;-79
2023/06/30 08:05:56;;;;;;;4.30;3.00;;;;;;;35.79;29.46;99968.36;104406;276;39412;-79
2023/06/30 08:08:32;;;;;;;4.10;3.10;;;;;;;35.98;29.11;99963.21;104254;277;38411;-79
2023/06/30 08:11:06;;;;;;;4.30;2.50;;;;;;;36.39;29.10;99964.95;103973;267;38955;-74
2023/06/30 08:13:40;;;;;;;2.90;2.20;;;;;;;36.76;28.58;99961.61;104047;276;38522;-73
2023/06/30 08:16:15;;;;;;;3.60;2.20;;;;;;;37.18;28.09;99960.16;104009;276;38780;-74
2023/06/30 08:18:49;;;;;;;2.50;2.30;;;;;;;37.51;27.48;99952.79;103822;276;39447;-75
2023/06/30 08:21:23;;;;;;;4.50;2.00;;;;;;;37.89;26.77;99957.84;104022;276;39563;-73
2023/06/30 08:23:57;;;;;;;3.60;2.00;;;;;;;38.27;26.23;99952.27;104041;276;39776;-73
2023/06/30 08:26:31;;;;;;;2.60;2.00;;;;;;;38.53;25.37;99949.73;104028;276;39418;-73
2023/06/30 08:29:05;;;;;;;2.50;2.20;;;;;;;38.82;25.07;99945.70;104020;276;39206;-73
2023/06/30 08:31:39;;;;;;;3.10;1.90;;;;;;;38.93;24.85;99946.11;104055;276;40146;-77
2023/06/30 08:34:13;;;;;;;3.90;2.30;;;;;;;39.08;25.16;99946.73;104032;276;38437;-77
2023/06/30 08:36:47;;;;;;;3.60;2.10;;;;;;;39.40;24.84;99945.73;104078;276;39428;-76
2023/06/30 08:39:21;;;;;;;2.60;2.10;;;;;;;39.80;23.75;99943.17;104071;276;38297;-76
2023/06/30 08:41:57;;;;;;;2.40;1.70;;;;;;;39.97;23.97;99941.13;104074;276;38630;-76
2023/06/30 08:44:32;;;;;;;2.70;1.80;;;;;;;40.24;22.61;99940.14;104013;276;39892;-73
2023/06/30 08:47:06;;;;;;;3.30;2.20;;;;;;;40.48;22.96;99940.45;104045;276;38546;-75
2023/06/30 08:49:40;;;;;;;3.00;2.00;;;;;;;40.63;21.86;99940.94;104043;276;39175;-75
2023/06/30 08:52:14;;;;;;;2.90;2.10;;;;;;;40.77;22.21;99938.20;104051;276;39571;-75
2023/06/30 08:54:48;;;;;;;3.10;1.90;;;;;;;40.87;22.19;99939.05;104080;276;39635;-74
2023/06/30 08:57:22;;;;;;;4.40;2.60;;;;;;;41.05;21.27;99935.75;104075;276;38299;-74
2023/06/30 08:59:56;;;;;;;3.00;2.00;;;;;;;40.66;21.28;99933.36;104030;276;39100;-74
2023/06/30 09:02:30;;;;;;;3.00;1.90;;;;;;;40.28;22.30;99929.64;104013;276;39454;-74
2023/06/30 09:05:04;;;;;;;2.00;1.80;;;;;;;40.25;21.71;99928.13;104033;276;38436;-74
2023/06/30 09:07:43;;;;;;;3.50;1.90;;;;;;;40.00;21.58;99922.95;104053;276;38440;-74
2023/06/30 09:10:17;;;;;;;3.30;1.70;;;;;;;40.05;22.43;99921.84;104014;276;38403;-75
2023/06/30 09:12:54;;;;;;;3.10;2.10;;;;;;;40.07;22.18;99925.05;104014;276;38691;-74
2023/06/30 09:15:28;;;;;;;2.50;2.10;;;;;;;39.50;21.81;99926.29;104039;276;39641;-74
2023/06/30 09:18:02;;;;;;;3.20;2.10;;;;;;;38.49;22.34;99926.57;104056;276;38425;-73
2023/06/30 09:20:36;;;;;;;3.60;2.60;;;;;;;37.29;23.59;99928.86;104050;276;38700;-74
2023/06/30 09:23:10;;;;;;;4.30;2.20;;;;;;;36.33;24.77;99925.48;104074;276;38755;-75
2023/06/30 09:25:46;;;;;;;2.40;2.10;;;;;;;35.94;25.96;99919.41;104046;276;38270;-74
2023/06/30 09:28:20;;;;;;;2.70;2.10;;;;;;;35.98;25.88;99919.52;104049;276;38367;-73
2023/06/30 09:30:54;;;;;;;4.20;1.90;;;;;;;35.92;26.21;99913.86;104013;276;38576;-74
2023/06/30 09:33:28;;;;;;;2.50;1.90;;;;;;;35.86;26.34;99914.48;103875;276;174010;-75
2023/06/30 09:36:02;;;;;;;4.30;2.10;;;;;;;35.78;25.98;99910.54;103821;276;38312;-73
2023/06/30 09:38:37;;;;;;;3.80;1.70;;;;;;;35.67;24.89;99912.59;104073;276;38256;-74
2023/06/30 09:41:22;;;;;;;3.80;1.80;;;;;;;35.43;26.34;99916.74;104065;276;38528;-74
2023/06/30 09:44:04;;;;;;;2.30;2.00;;;;;;;35.38;26.80;99916.85;104019;276;38215;-75
2023/06/30 09:46:38;;;;;;;2.10;1.90;;;;;;;35.37;26.24;99911.09;104061;276;38444;-73
2023/06/30 09:49:13;;;;;;;4.40;1.80;;;;;;;35.24;26.14;99911.27;104028;276;38608;-73
2023/06/30 09:51:48;;;;;;;3.30;2.00;;;;;;;35.25;27.03;99911.67;104021;276;39750;-74
2023/06/30 09:54:23;;;;;;;3.60;1.70;;;;;;;35.09;26.64;99913.02;103423;276;887464;-74
2023/06/30 09:57:03;;;;;;;3.30;1.60;;;;;;;34.57;26.19;99915.68;104012;276;38404;-74
2023/06/30 09:59:38;;;;;;;3.30;1.80;;;;;;;33.88;26.19;99913.21;104016;276;38903;-73
2023/06/30 10:02:13;;;;;;;3.20;2.00;;;;;;;33.34;27.33;99916.02;103835;276;38484;-74
2023/06/30 10:04:47;;;;;;;3.40;2.00;;;;;;;32.99;28.44;99917.20;104049;265;38722;-74
2023/06/30 10:07:20;;;;;;;2.70;1.60;;;;;;;32.61;28.53;99917.02;104063;276;38361;-75
2023/06/30 10:09:55;;;;;;;2.20;1.90;;;;;;;32.22;28.36;99909.59;104035;276;39018;-74
2023/06/30 10:12:29;;;;;;;2.60;1.70;;;;;;;31.90;29.05;99910.60;104043;276;38236;-74
2023/06/30 10:15:03;;;;;;;3.20;2.00;;;;;;;31.56;29.48;99904.89;104044;276;38977;-73
2023/06/30 10:17:37;;;;;;;2.20;1.90;;;;;;;31.38;30.10;99897.53;103868;278;38243;-73
2023/06/30 10:20:13;;;;;;;2.60;1.70;;;;;;;31.56;31.07;99898.73;103817;278;38321;-74
2023/06/30 10:26:27;;;;;;;2.00;1.60;;;;;;;32.01;29.34;99893.31;104178;275;38406;-75
2023/06/30 10:29:01;;;;;;;2.10;1.60;;;;;;;31.97;28.51;99888.24;104102;275;40369;-74
2023/06/30 10:31:36;;;;;;;2.10;1.90;;;;;;;31.95;28.63;99882.02;103938;275;171667;-74
2023/06/30 10:34:26;;;;;;;1.80;1.40;;;;;;;32.04;29.13;99884.23;104137;275;38419;-74
2023/06/30 10:37:02;;;;;;;2.30;1.80;;;;;;;32.11;29.46;99886.95;104186;275;38458;-75
2023/06/30 10:39:43;;;;;;;3.10;1.70;;;;;;;31.85;29.38;99880.20;104105;275;39639;-74
2023/06/30 10:42:20;;;;;;;2.60;1.80;;;;;;;31.65;30.37;99880.98;104195;275;38742;-74
2023/06/30 10:44:58;;;;;;;2.00;1.80;;;;;;;31.74;30.74;99876.55;104152;276;39244;-74
2023/06/30 10:47:33;;;;;;;2.90;1.80;;;;;;;31.96;30.61;99870.10;104128;276;38630;-73
2023/06/30 10:50:17;;;;;;;2.80;2.10;;;;;;;32.07;30.28;99867.34;104097;275;38705;-75
2023/06/30 10:52:57;;;;;;;2.40;1.70;;;;;;;32.11;30.26;99865.34;104150;275;38667;-74
2023/06/30 10:55:33;;;;;;;1.90;1.70;;;;;;;32.16;29.77;99866.18;104128;275;38217;-74
2023/06/30 10:58:07;;;;;;;3.90;1.60;;;;;;;32.22;29.34;99862.30;104147;276;38322;-76
2023/06/30 11:00:42;;;;;;;2.80;1.90;;;;;;;32.18;28.77;99860.95;104155;275;38569;-75
2023/06/30 11:03:16;;;;;;;2.90;1.60;;;;;;;32.25;29.39;99859.30;104081;275;38234;-76
2023/06/30 11:05:50;;;;;;;2.20;1.60;;;;;;;32.34;28.93;99863.54;104147;276;38225;-75
2023/06/30 11:08:31;;;;;;;2.80;1.80;;;;;;;32.35;28.77;99855.17;104115;275;38295;-73
2023/06/30 11:11:10;;;;;;;2.50;1.80;;;;;;;32.28;28.98;99852.14;104146;275;38346;-74
2023/06/30 11:13:45;;;;;;;3.30;2.10;;;;;;;32.08;29.07;99848.89;103635;275;687626;-74
2023/06/30 11:16:19;;;;;;;2.30;1.60;;;;;;;31.82;29.08;99847.59;104204;275;39841;-73
2023/06/30 11:19:02;;;;;;;3.60;1.70;;;;;;;31.54;29.15;99846.39;104068;275;41767;-73
2023/06/30 11:21:36;;;;;;;2.80;2.10;;;;;;;31.20;29.90;99843.49;104179;275;38223;-76
2023/06/30 11:24:18;;;;;;;2.40;1.70;;;;;;;31.09;30.63;99841.42;104106;275;39664;-73
2023/06/30 11:26:52;;;;;;;3.40;1.80;;;;;;;31.19;31.49;99840.98;104148;275;39376;-72
2023/06/30 11:29:26;;;;;;;2.70;1.80;;;;;;;31.35;31.90;99835.48;104109;275;38265;-74
2023/06/30 11:32:01;;;;;;;2.40;1.80;;;;;;;31.46;31.16;99833.70;104124;275;38275;-75
2023/06/30 11:34:36;;;;;;;3.50;1.80;;;;;;;31.56;31.31;99829.13;104051;275;174221;-75
2023/06/30 11:37:12;;;;;;;2.10;1.90;;;;;;;31.65;30.51;99828.79;104160;275;38294;-74
2023/06/30 11:39:53;;;;;;;3.20;2.00;;;;;;;31.68;30.17;99825.76;104134;276;38393;-73
2023/06/30 11:42:30;;;;;;;3.50;1.70;;;;;;;31.68;30.87;99824.67;104148;275;38878;-73
2023/06/30 11:45:08;;;;;;;2.60;1.70;;;;;;;31.67;30.91;99825.47;104105;275;39406;-75
2023/06/30 11:47:46;;;;;;;3.90;1.80;;;;;;;31.65;31.36;99818.14;104183;275;39422;-74
2023/06/30 11:50:25;;;;;;;2.30;2.00;;;;;;;31.66;31.33;99814.80;104138;275;38421;-76
2023/06/30 11:52:59;;;;;;;4.50;2.00;;;;;;;31.67;31.32;99815.75;104099;275;38254;-73
2023/06/30 11:55:34;;;;;;;3.40;2.10;;;;;;;31.66;30.42;99810.14;104126;275;39131;-74
2023/06/30 11:58:10;;;;;;;2.00;1.80;;;;;;;31.62;30.18;99806.70;104132;275;38391;-74
2023/06/30 12:00:46;;;;;;;3.00;1.80;;;;;;;31.64;29.63;99807.58;104168;275;38340;-73
2023/06/30 12:03:20;;;;;;;2.20;1.90;;;;;;;31.63;29.40;99806.32;104163;275;38548;-74
2023/06/30 12:06:01;;;;;;;2.50;1.90;;;;;;;31.62;29.49;99804.66;104134;275;38275;-74
2023/06/30 12:08:38;;;;;;;2.20;1.80;;;;;;;31.63;28.97;99804.45;104136;275;38318;-74
2023/06/30 12:11:18;;;;;;;4.10;1.90;;;;;;;31.56;29.06;99799.48;104155;275;38408;-74